M I D A S
Marine Information and Data Acquisition System
Tripno 529 of the Zeeleeuw from 2003-07-02 06:09:36 to 2003-07-02 13:08:40
Back to CruiseResearch ActivitiesStationsMapUnderway DataData graphs

EquipmentUnitsComment
TimeDGPSUTC
LatitudeDGPSDM.mWGS84
LongitudeDGPSDM.mWGS84
HeadingGyrodeg 
SOGDGPSknotsSpeed over ground
COGDGPSdegCourse over ground
DepthEcho soundermeters200 kHz
Missing or incorrect values are displayed as -999
Navigation data collected by the RV Zeeleeuw from 2003-07-02 06:09:36 to 2003-07-02 13:08:40
                                                                                    Next 1000 lines
Time Latitude Longitude Heading SOG COG Depth
2003-07-02 06:09:44 51°13.63 2°55.96 115.7 5 291 -999
2003-07-02 06:09:48 51°13.63 2°55.95 116.8 5 293 -999
2003-07-02 06:09:54 51°13.63 2°55.94 118 5.1 294 -999
2003-07-02 06:09:58 51°13.64 2°55.93 119.2 5.2 295 -999
2003-07-02 06:10:04 51°13.64 2°55.92 120.1 5.2 296 -999
2003-07-02 06:10:08 51°13.64 2°55.91 120.5 5.3 297 -999
2003-07-02 06:10:14 51°13.65 2°55.89 120.7 5.3 297 -999
2003-07-02 06:10:18 51°13.65 2°55.89 120.9 5.3 298 -999
2003-07-02 06:10:24 51°13.65 2°55.87 120.9 5.2 297 -999
2003-07-02 06:10:28 51°13.66 2°55.87 120.7 5.2 297 -999
2003-07-02 06:10:34 51°13.66 2°55.85 120.3 5.3 297 -999
2003-07-02 06:10:38 51°13.66 2°55.85 119.6 5.3 297 -999
2003-07-02 06:10:44 51°13.67 2°55.83 118.9 5.3 296 -999
2003-07-02 06:10:48 51°13.67 2°55.82 118.1 5.2 295 -999
2003-07-02 06:10:54 51°13.67 2°55.81 116.9 5.2 295 -999
2003-07-02 06:10:58 51°13.67 2°55.8 115.9 5 294 -999
2003-07-02 06:11:04 51°13.68 2°55.79 113.9 4.7 293 -999
2003-07-02 06:11:08 51°13.68 2°55.79 112.2 4.5 292 -999
2003-07-02 06:11:14 51°13.68 2°55.77 110.3 4.2 290 -999
2003-07-02 06:11:18 51°13.68 2°55.77 108.9 4.1 290 -999
2003-07-02 06:11:24 51°13.68 2°55.76 107.1 3.8 287 12.9
2003-07-02 06:11:28 51°13.69 2°55.75 105.7 3.5 288 13.4
2003-07-02 06:11:32 51°13.69 2°55.75 104.1 2.9 284 13.1
2003-07-02 06:11:36 51°13.69 2°55.74 101.1 2.5 285 13.1
2003-07-02 06:11:40 51°13.69 2°55.74 97.8 2.2 282 13.2
2003-07-02 06:11:44 51°13.69 2°55.74 94.5 1.8 281 13.2
2003-07-02 06:11:50 51°13.69 2°55.73 90.9 1.3 279 13.3
2003-07-02 06:11:54 51°13.69 2°55.73 86.2 1 282 13.5
2003-07-02 06:11:58 51°13.69 2°55.73 82.8 0.6 287 13.4
2003-07-02 06:12:04 51°13.69 2°55.73 78.7 0.4 311 13.1
2003-07-02 06:12:08 51°13.69 2°55.73 74.4 0.3 353 13
2003-07-02 06:12:14 51°13.69 2°55.73 69.6 0.5 24 12.3
2003-07-02 06:12:18 51°13.69 2°55.73 64.4 0.8 36 12.9
2003-07-02 06:12:24 51°13.69 2°55.73 58.5 1 36 12.8
2003-07-02 06:12:28 51°13.69 2°55.73 51.2 1.2 33 12.5
2003-07-02 06:12:34 51°13.7 2°55.74 44.8 1.4 31 13
2003-07-02 06:12:38 51°13.7 2°55.74 39.5 1.7 22 13.2
2003-07-02 06:12:44 51°13.7 2°55.74 32 2.1 18 12.7
2003-07-02 06:12:48 51°13.7 2°55.74 24.5 2.4 11 12.2
2003-07-02 06:12:54 51°13.71 2°55.74 17.2 2.7 6 11.8
2003-07-02 06:12:58 51°13.71 2°55.74 10 2.9 358 11.5
2003-07-02 06:13:04 51°13.72 2°55.74 2.9 3.2 352 11.2
2003-07-02 06:13:08 51°13.72 2°55.74 355.6 3.3 347 11
2003-07-02 06:13:12 51°13.72 2°55.74 348.2 3.6 341 10.8
2003-07-02 06:13:18 51°13.73 2°55.73 341.4 4 334 10.7
2003-07-02 06:13:24 51°13.73 2°55.73 336.2 4.3 329 10.7
2003-07-02 06:13:28 51°13.74 2°55.72 333.2 4.5 328 10.6
2003-07-02 06:13:32 51°13.74 2°55.72 332 4.9 326 10.7
2003-07-02 06:13:38 51°13.75 2°55.71 332 5.5 327 10.8
2003-07-02 06:13:44 51°13.76 2°55.7 332.8 5.9 327 10.9
2003-07-02 06:13:48 51°13.76 2°55.69 333.3 6.2 327 10.8
2003-07-02 06:13:54 51°13.77 2°55.69 334 6.7 328 10.8
2003-07-02 06:13:58 51°13.78 2°55.68 334.5 6.9 328 10.7
2003-07-02 06:14:04 51°13.79 2°55.67 335 7.3 330 10.7
2003-07-02 06:14:08 51°13.8 2°55.66 335.5 7.5 330 10.8
2003-07-02 06:14:14 51°13.81 2°55.65 336.4 7.8 332 10.9
2003-07-02 06:14:18 51°13.82 2°55.65 337.2 8 332 10.7
2003-07-02 06:14:24 51°13.83 2°55.64 338 8.2 334 10.6
2003-07-02 06:14:28 51°13.84 2°55.63 338.7 8.3 333 10.5
2003-07-02 06:14:32 51°13.85 2°55.62 339.4 8.4 335 10.3
2003-07-02 06:14:38 51°13.86 2°55.61 339.4 8.5 333 10.5
2003-07-02 06:14:44 51°13.87 2°55.6 339.8 8.6 334 10.7
2003-07-02 06:14:48 51°13.88 2°55.6 340.9 8.7 335 10.7
2003-07-02 06:14:54 51°13.9 2°55.59 340.9 8.8 336 10.8
2003-07-02 06:14:58 51°13.9 2°55.58 340.2 8.8 334 10.9
2003-07-02 06:15:04 51°13.92 2°55.57 340.2 8.9 336 10.9
2003-07-02 06:15:08 51°13.93 2°55.56 340.9 8.9 335 10.9
2003-07-02 06:15:14 51°13.94 2°55.55 341.1 8.9 336 10.9
2003-07-02 06:15:20 51°13.95 2°55.54 340.6 9 335 10.8
2003-07-02 06:15:24 51°13.96 2°55.54 341.1 9 335 11
2003-07-02 06:15:28 51°13.97 2°55.53 341.8 9 338 10.8
2003-07-02 06:15:34 51°13.99 2°55.52 341 9 336 10.8
2003-07-02 06:15:38 51°13.99 2°55.52 340.6 9 336 10.9
2003-07-02 06:15:44 51°14.01 2°55.51 340.9 9 336 11
2003-07-02 06:15:48 51°14.02 2°55.5 340.4 9.1 336 10.8
2003-07-02 06:15:54 51°14.03 2°55.49 339.6 9 334 10.7
2003-07-02 06:15:58 51°14.04 2°55.48 339.5 9 334 10.7
2003-07-02 06:16:04 51°14.05 2°55.47 339.3 9.1 334 10.6
2003-07-02 06:16:08 51°14.06 2°55.46 339.7 9.1 334 10.7
2003-07-02 06:16:14 51°14.08 2°55.45 339.6 9.1 335 10.7
2003-07-02 06:16:18 51°14.09 2°55.45 339.1 9.1 334 10.7
2003-07-02 06:16:24 51°14.1 2°55.44 339.3 9.1 335 10.7
2003-07-02 06:16:28 51°14.11 2°55.43 338.7 9.1 334 10.7
2003-07-02 06:16:34 51°14.12 2°55.42 338.1 9.1 333 10.7
2003-07-02 06:16:38 51°14.13 2°55.41 337.3 9 333 10.7
2003-07-02 06:16:44 51°14.14 2°55.4 336.9 9 332 10.8
2003-07-02 06:16:48 51°14.15 2°55.39 336.1 9 332 10.9
2003-07-02 06:16:54 51°14.17 2°55.38 335 9 330 10.9
2003-07-02 06:16:58 51°14.17 2°55.37 333.8 9 329 11.2
2003-07-02 06:17:04 51°14.19 2°55.36 332.4 9 327 11.1
2003-07-02 06:17:08 51°14.19 2°55.35 330.8 9 326 10.9
2003-07-02 06:17:14 51°14.21 2°55.33 328.7 8.9 323 10.9
2003-07-02 06:17:18 51°14.21 2°55.32 326.1 8.9 321 10.9
2003-07-02 06:17:24 51°14.23 2°55.31 323.6 8.9 318 11
2003-07-02 06:17:28 51°14.23 2°55.3 321.7 8.9 316 10.8
2003-07-02 06:17:32 51°14.24 2°55.29 320.7 8.9 315 10.8
2003-07-02 06:17:38 51°14.25 2°55.27 320.2 8.9 315 10.9
2003-07-02 06:17:44 51°14.26 2°55.25 319.8 9 314 10.8
2003-07-02 06:17:48 51°14.27 2°55.24 318.8 9 314 10.9
2003-07-02 06:17:54 51°14.28 2°55.22 317.8 9 312 10.9
2003-07-02 06:17:58 51°14.28 2°55.21 316.6 9 311 10.8
2003-07-02 06:18:04 51°14.29 2°55.19 315.7 9 310 10.9
2003-07-02 06:18:08 51°14.3 2°55.18 315 9 310 10.8
2003-07-02 06:18:14 51°14.31 2°55.16 315.1 9.1 309 10.7
2003-07-02 06:18:20 51°14.32 2°55.14 315.4 9.1 310 10.9
2003-07-02 06:18:24 51°14.33 2°55.13 315.7 9.2 310 10.6
2003-07-02 06:18:28 51°14.33 2°55.12 315.9 9.3 311 10.1
2003-07-02 06:18:34 51°14.34 2°55.1 315.9 9.4 311 9.9
2003-07-02 06:18:38 51°14.35 2°55.09 315.6 9.5 311 10.4
2003-07-02 06:18:44 51°14.36 2°55.07 315 9.5 310 10.4
2003-07-02 06:18:48 51°14.37 2°55.06 313.8 9.6 309 10.3
2003-07-02 06:18:54 51°14.38 2°55.04 312.3 9.6 307 10.3
2003-07-02 06:18:58 51°14.38 2°55.02 310.1 9.6 304 10.2
2003-07-02 06:19:04 51°14.39 2°55 307.7 9.6 302 10.2
2003-07-02 06:19:08 51°14.4 2°54.98 305.2 9.6 299 10.2
2003-07-02 06:19:14 51°14.4 2°54.96 302.7 9.7 296 10.2
2003-07-02 06:19:18 51°14.41 2°54.95 299.7 9.8 292 10.4
2003-07-02 06:19:24 51°14.41 2°54.92 296.8 9.8 289 10.4
2003-07-02 06:19:28 51°14.42 2°54.9 293.3 9.9 286 10.3
2003-07-02 06:19:34 51°14.42 2°54.88 289.4 10 280 10.4
2003-07-02 06:19:38 51°14.42 2°54.86 285.7 10.1 278 10.3
2003-07-02 06:19:44 51°14.42 2°54.83 283.1 10.2 275 10
2003-07-02 06:19:48 51°14.42 2°54.81 280.7 10.3 273 10.1
2003-07-02 06:19:54 51°14.42 2°54.79 278.5 10.5 270 10.2
2003-07-02 06:19:58 51°14.42 2°54.77 276.5 10.5 269 10.1
2003-07-02 06:20:04 51°14.42 2°54.74 275.1 10.5 268 10
2003-07-02 06:20:08 51°14.42 2°54.72 273.9 10.6 267 10.2
2003-07-02 06:20:14 51°14.42 2°54.69 272 10.7 265 10
2003-07-02 06:20:18 51°14.42 2°54.67 270.2 10.7 263 10.1
2003-07-02 06:20:24 51°14.41 2°54.65 267.8 10.9 262 10.2
2003-07-02 06:20:28 51°14.41 2°54.63 265.6 11.1 260 10.4
2003-07-02 06:20:34 51°14.41 2°54.6 263.8 11.4 257 10.3
2003-07-02 06:20:38 51°14.4 2°54.58 261.6 11.7 255 10.5
2003-07-02 06:20:44 51°14.4 2°54.55 259.8 11.8 254 10.3
2003-07-02 06:20:48 51°14.4 2°54.53 257.8 11.8 253 10.3
2003-07-02 06:20:54 51°14.39 2°54.5 256.7 12.1 251 9.5
2003-07-02 06:20:58 51°14.38 2°54.48 256.1 12.2 250 9.2
2003-07-02 06:21:04 51°14.38 2°54.45 255.4 12.2 250 9.2
2003-07-02 06:21:08 51°14.37 2°54.43 255.3 12.2 249 9.1
2003-07-02 06:21:14 51°14.36 2°54.4 254 12.4 248 9.2
2003-07-02 06:21:18 51°14.36 2°54.38 253 12.4 248 9.1
2003-07-02 06:21:24 51°14.35 2°54.35 252.6 12.5 247 9.1
2003-07-02 06:21:28 51°14.34 2°54.33 252.2 12.5 246 8.9
2003-07-02 06:21:34 51°14.34 2°54.3 251.3 12.6 245 8.8
2003-07-02 06:21:38 51°14.33 2°54.28 249.5 12.6 243 8.9
2003-07-02 06:21:44 51°14.32 2°54.25 247.5 12.6 242 8.9
2003-07-02 06:21:48 51°14.31 2°54.23 246.5 12.6 242 8.9
2003-07-02 06:21:54 51°14.3 2°54.2 246 12.7 241 8.9
2003-07-02 06:21:58 51°14.3 2°54.18 246.5 12.6 241 8.7
2003-07-02 06:22:04 51°14.29 2°54.15 246.1 12.6 241 8.7
2003-07-02 06:22:08 51°14.28 2°54.13 246 12.6 240 8.6
2003-07-02 06:22:14 51°14.27 2°54.1 246.2 12.6 240 8.8
2003-07-02 06:22:18 51°14.26 2°54.08 245.8 12.7 241 8.7
2003-07-02 06:22:24 51°14.25 2°54.05 245.9 12.6 240 8.8
2003-07-02 06:22:28 51°14.24 2°54.03 245.7 12.7 240 8.6
2003-07-02 06:22:32 51°14.24 2°54.01 245.8 12.6 240 8.7
2003-07-02 06:22:38 51°14.23 2°53.98 245.8 12.7 240 8.9
2003-07-02 06:22:44 51°14.22 2°53.95 245.7 12.7 241 8.7
2003-07-02 06:22:48 51°14.21 2°53.94 245.5 12.7 240 8.8
2003-07-02 06:22:54 51°14.2 2°53.91 245.5 12.7 241 8.8
2003-07-02 06:22:58 51°14.19 2°53.89 245.3 12.7 239 8.8
2003-07-02 06:23:04 51°14.18 2°53.86 246.1 12.6 241 8.8
2003-07-02 06:23:08 51°14.17 2°53.84 245.8 12.6 240 8.7
2003-07-02 06:23:14 51°14.16 2°53.81 246.2 12.7 241 8.7
2003-07-02 06:23:18 51°14.16 2°53.79 246.3 12.6 240 8.8
2003-07-02 06:23:24 51°14.15 2°53.76 246.2 12.6 241 8.7
2003-07-02 06:23:28 51°14.14 2°53.74 245.9 12.5 239 8.7
2003-07-02 06:23:34 51°14.13 2°53.71 246 12.7 241 8.7
2003-07-02 06:23:38 51°14.12 2°53.69 246.1 12.7 240 8.7
2003-07-02 06:23:44 51°14.11 2°53.66 246.1 12.7 241 8.8
2003-07-02 06:23:48 51°14.1 2°53.64 245.8 12.8 240 8.9
2003-07-02 06:23:54 51°14.09 2°53.61 246.2 12.9 241 8.9
2003-07-02 06:24:00 51°14.08 2°53.58 246 13.1 240 8.7
2003-07-02 06:24:04 51°14.08 2°53.56 246 13.2 240 8.9
2003-07-02 06:24:08 51°14.07 2°53.54 246 13.3 241 8.8
2003-07-02 06:24:12 51°14.06 2°53.52 246.3 13.5 241 8.8
2003-07-02 06:24:18 51°14.05 2°53.49 246.3 13.5 241 8.9
2003-07-02 06:24:24 51°14.04 2°53.46 245.6 13.7 241 8.8
2003-07-02 06:24:28 51°14.03 2°53.44 246.5 13.6 241 8.9
2003-07-02 06:24:34 51°14.02 2°53.41 246.3 13.6 241 9
2003-07-02 06:24:38 51°14.01 2°53.39 246.1 13.7 241 8.9
2003-07-02 06:24:44 51°14 2°53.35 245.9 13.8 241 9
2003-07-02 06:24:48 51°14 2°53.33 246.6 13.9 242 9
2003-07-02 06:24:54 51°13.98 2°53.3 246.7 13.8 242 9.1
2003-07-02 06:24:58 51°13.98 2°53.28 246.2 13.9 241 9.1
2003-07-02 06:25:04 51°13.97 2°53.25 246.7 14 242 9
2003-07-02 06:25:08 51°13.96 2°53.22 246.6 14 241 9.2
2003-07-02 06:25:14 51°13.95 2°53.19 245.8 13.9 241 9
2003-07-02 06:25:18 51°13.94 2°53.17 246 13.9 241 9.2
2003-07-02 06:25:24 51°13.93 2°53.14 246.4 14.1 241 9
2003-07-02 06:25:28 51°13.92 2°53.12 246.5 14 241 9.2
2003-07-02 06:25:34 51°13.91 2°53.08 246.1 13.9 241 9.3
2003-07-02 06:25:38 51°13.9 2°53.06 245.8 13.9 241 9.4
2003-07-02 06:25:44 51°13.89 2°53.03 245.8 14 240 9.2
2003-07-02 06:25:48 51°13.88 2°53.01 246.1 14 240 9.4
2003-07-02 06:25:54 51°13.87 2°52.98 245.8 13.9 240 9.4
2003-07-02 06:25:58 51°13.86 2°52.96 245.9 14 241 9.5
2003-07-02 06:26:04 51°13.85 2°52.92 246.5 14 241 9.5
2003-07-02 06:26:08 51°13.84 2°52.9 246 14.1 240 9.5
2003-07-02 06:26:14 51°13.83 2°52.87 246.7 14 241 9.6
2003-07-02 06:26:20 51°13.82 2°52.84 246 14 240 9.6
2003-07-02 06:26:24 51°13.81 2°52.81 246.4 14.2 241 9.6
2003-07-02 06:26:28 51°13.81 2°52.79 246.6 14.1 241 9.6
2003-07-02 06:26:34 51°13.79 2°52.76 245.8 14.1 240 9.5
2003-07-02 06:26:38 51°13.79 2°52.74 246.7 14.2 241 9.7
2003-07-02 06:26:44 51°13.78 2°52.71 246 14.1 240 9.5
2003-07-02 06:26:48 51°13.77 2°52.68 246.1 14 240 9.6
2003-07-02 06:26:54 51°13.76 2°52.65 245.8 14 240 9.6
2003-07-02 06:27:00 51°13.74 2°52.62 246 14.1 241 9.5
2003-07-02 06:27:04 51°13.74 2°52.6 246.7 14 241 9.5
2003-07-02 06:27:08 51°13.73 2°52.58 246 14 239 9.7
2003-07-02 06:27:14 51°13.72 2°52.54 246.4 14.1 241 9.7
2003-07-02 06:27:18 51°13.71 2°52.52 246.8 14.1 241 9.7
2003-07-02 06:27:24 51°13.7 2°52.49 246.8 14 241 9.6
2003-07-02 06:27:28 51°13.69 2°52.47 246.5 14 241 9.7
2003-07-02 06:27:34 51°13.68 2°52.43 246.3 14.1 241 9.8
2003-07-02 06:27:38 51°13.67 2°52.41 246.4 14 241 9.8
2003-07-02 06:27:44 51°13.66 2°52.38 245.7 14.1 240 9.8
2003-07-02 06:27:48 51°13.65 2°52.36 247.2 14.1 241 9.9
2003-07-02 06:27:54 51°13.64 2°52.33 246 14.2 239 9.7
2003-07-02 06:27:58 51°13.63 2°52.3 246.6 14.3 241 10
2003-07-02 06:28:04 51°13.62 2°52.27 246.6 14.1 241 9.8
2003-07-02 06:28:08 51°13.61 2°52.25 246.5 14.1 241 9.9
2003-07-02 06:28:14 51°13.6 2°52.22 246.2 14.2 240 9.9
2003-07-02 06:28:18 51°13.59 2°52.19 246.7 14.2 241 10
2003-07-02 06:28:24 51°13.58 2°52.16 246.5 14.2 241 9.9
2003-07-02 06:28:28 51°13.58 2°52.14 246.8 14.1 242 10.1
2003-07-02 06:28:34 51°13.56 2°52.11 246.7 14.1 240 10
2003-07-02 06:28:38 51°13.56 2°52.08 246.2 14.1 241 9.9
2003-07-02 06:28:44 51°13.55 2°52.05 246.2 14.1 240 10
2003-07-02 06:28:48 51°13.54 2°52.03 246.3 14.1 242 10
2003-07-02 06:28:54 51°13.53 2°52 245.9 14.2 240 9.8
2003-07-02 06:28:58 51°13.52 2°51.98 246.5 14.2 241 9.9
2003-07-02 06:29:04 51°13.51 2°51.94 246.5 14.1 241 10
2003-07-02 06:29:08 51°13.5 2°51.92 246.2 14.2 240 9.9
2003-07-02 06:29:14 51°13.49 2°51.89 246.4 14.1 241 10
2003-07-02 06:29:18 51°13.48 2°51.87 245.9 14 240 10
2003-07-02 06:29:24 51°13.47 2°51.83 245.7 14.1 240 10
2003-07-02 06:29:28 51°13.46 2°51.81 246.2 14.1 241 10
2003-07-02 06:29:34 51°13.45 2°51.78 246.1 14 241 10
2003-07-02 06:29:38 51°13.44 2°51.76 245.6 14.1 240 10
2003-07-02 06:29:44 51°13.43 2°51.72 246.5 14.1 242 10.1
2003-07-02 06:29:48 51°13.42 2°51.7 245.9 14.2 239 10.1
2003-07-02 06:29:54 51°13.41 2°51.67 246.5 14.2 242 10
2003-07-02 06:30:00 51°13.4 2°51.64 246 14.2 240 10.1
2003-07-02 06:30:04 51°13.39 2°51.62 246.1 14.1 241 10
2003-07-02 06:30:08 51°13.39 2°51.59 245.7 14.2 240 9.8
2003-07-02 06:30:14 51°13.37 2°51.56 246.2 14.2 242 9.9
2003-07-02 06:30:18 51°13.37 2°51.54 246.2 14.1 240 9.9
2003-07-02 06:30:24 51°13.36 2°51.51 246.5 14.1 241 10
2003-07-02 06:30:28 51°13.35 2°51.48 245.9 14.1 240 9.9
2003-07-02 06:30:32 51°13.34 2°51.46 246.5 14.2 241 10
2003-07-02 06:30:38 51°13.33 2°51.43 246.5 14.1 242 9.9
2003-07-02 06:30:44 51°13.32 2°51.4 246.4 14.1 242 10
2003-07-02 06:30:48 51°13.31 2°51.38 246 14.1 240 10.1
2003-07-02 06:30:54 51°13.3 2°51.34 245.9 14.2 241 10.1
2003-07-02 06:30:58 51°13.29 2°51.32 246.5 14.2 241 10
2003-07-02 06:31:04 51°13.28 2°51.29 246.2 14.1 242 10
2003-07-02 06:31:08 51°13.27 2°51.27 246.4 14.1 241 10
2003-07-02 06:31:14 51°13.26 2°51.23 246.3 14.1 241 10.1
2003-07-02 06:31:18 51°13.25 2°51.21 246.3 14.2 239 9.9
2003-07-02 06:31:24 51°13.24 2°51.18 246.7 14.2 242 10.1
2003-07-02 06:31:28 51°13.23 2°51.16 246.1 14.1 241 10
2003-07-02 06:31:34 51°13.22 2°51.12 246.7 14.1 243 10
2003-07-02 06:31:38 51°13.21 2°51.1 246.5 14.2 240 10
2003-07-02 06:31:44 51°13.2 2°51.07 246.1 14.2 241 10.1
2003-07-02 06:31:48 51°13.19 2°51.05 246 14.2 241 10.1
2003-07-02 06:31:54 51°13.18 2°51.01 246.5 14.2 242 9.9
2003-07-02 06:31:58 51°13.18 2°50.99 246.6 14.2 241 10
2003-07-02 06:32:04 51°13.16 2°50.96 246.2 14.1 241 10.1
2003-07-02 06:32:08 51°13.16 2°50.94 246 14.2 241 10.1
2003-07-02 06:32:14 51°13.14 2°50.91 246.2 14.2 241 10.1
2003-07-02 06:32:20 51°13.13 2°50.87 246 14.2 240 10.2
2003-07-02 06:32:24 51°13.13 2°50.85 246 14.3 242 10.2
2003-07-02 06:32:28 51°13.12 2°50.83 246.5 14.3 241 10
2003-07-02 06:32:34 51°13.11 2°50.79 247 14.1 240 10.3
2003-07-02 06:32:38 51°13.1 2°50.77 246.3 14.1 240 10
2003-07-02 06:32:44 51°13.09 2°50.74 246.1 14.2 241 10.1
2003-07-02 06:32:48 51°13.08 2°50.72 246.8 14.3 241 10.2
2003-07-02 06:32:54 51°13.07 2°50.69 246.3 14.2 241 10.2
2003-07-02 06:32:58 51°13.06 2°50.66 246.4 14.3 241 10.3
2003-07-02 06:33:04 51°13.05 2°50.63 246.2 14.2 241 10.2
2003-07-02 06:33:08 51°13.04 2°50.61 246.5 14.1 242 10.3
2003-07-02 06:33:14 51°13.03 2°50.58 246.6 14.2 241 10.3
2003-07-02 06:33:18 51°13.02 2°50.55 246.7 14.1 241 10.2
2003-07-02 06:33:24 51°13.01 2°50.52 246.4 14.1 241 10.3
2003-07-02 06:33:28 51°13 2°50.5 246.5 14.2 242 10.2
2003-07-02 06:33:34 51°12.99 2°50.47 246.5 14.1 241 10.3
2003-07-02 06:33:38 51°12.98 2°50.44 245.8 14.2 240 10.3
2003-07-02 06:33:44 51°12.97 2°50.41 246.3 14.2 241 10.4
2003-07-02 06:33:48 51°12.96 2°50.39 245.9 14.1 241 10.2
2003-07-02 06:33:54 51°12.95 2°50.36 245.7 14.2 240 10.2
2003-07-02 06:33:58 51°12.95 2°50.34 246.2 14.1 241 10.3
2003-07-02 06:34:04 51°12.93 2°50.3 245.7 14.1 239 10.3
2003-07-02 06:34:08 51°12.93 2°50.28 245.8 14.2 241 10.4
2003-07-02 06:34:14 51°12.91 2°50.25 246.3 14.1 241 10.3
2003-07-02 06:34:18 51°12.91 2°50.23 245.9 14.2 240 10.4
2003-07-02 06:34:24 51°12.9 2°50.19 246.9 14.2 242 10.4
2003-07-02 06:34:28 51°12.89 2°50.17 246.4 14.1 240 10.4
2003-07-02 06:34:34 51°12.88 2°50.14 245.9 14.1 241 10.4
2003-07-02 06:34:38 51°12.87 2°50.12 246.2 14.2 241 10.4
2003-07-02 06:34:44 51°12.86 2°50.09 246.2 14.1 240 10.4
2003-07-02 06:34:48 51°12.85 2°50.06 246 14.2 241 10.3
2003-07-02 06:34:54 51°12.84 2°50.03 246.4 14.2 241 10.4
2003-07-02 06:34:58 51°12.83 2°50.01 246.4 14.1 241 10.3
2003-07-02 06:35:04 51°12.82 2°49.98 246.1 14.1 241 10.4
2003-07-02 06:35:08 51°12.81 2°49.95 246.3 14.2 241 10.5
2003-07-02 06:35:14 51°12.8 2°49.92 246.5 14.2 241 10.4
2003-07-02 06:35:18 51°12.79 2°49.9 246.5 14.1 241 10.5
2003-07-02 06:35:24 51°12.78 2°49.87 246.3 14.1 241 10.5
2003-07-02 06:35:28 51°12.77 2°49.85 246.3 14.2 241 10.4
2003-07-02 06:35:34 51°12.76 2°49.81 246.2 14.2 241 10.5
2003-07-02 06:35:38 51°12.75 2°49.79 246.8 14.1 241 10.3
2003-07-02 06:35:44 51°12.74 2°49.76 246 14.1 240 10.3
2003-07-02 06:35:48 51°12.74 2°49.74 247 14.1 243 10.4
2003-07-02 06:35:54 51°12.72 2°49.7 246.5 14.4 240 10.4
2003-07-02 06:35:58 51°12.72 2°49.68 246.7 14.1 241 10.6
2003-07-02 06:36:04 51°12.7 2°49.65 246 14.2 241 10.6
2003-07-02 06:36:08 51°12.7 2°49.63 246.1 14.2 241 10.4
2003-07-02 06:36:14 51°12.69 2°49.59 246.5 14.1 242 10.6
2003-07-02 06:36:20 51°12.67 2°49.56 246.6 14.1 242 10.6
2003-07-02 06:36:24 51°12.67 2°49.54 246.6 14.1 241 10.8
2003-07-02 06:36:28 51°12.66 2°49.52 246.6 14.2 242 10.7
2003-07-02 06:36:34 51°12.65 2°49.48 246.2 14.2 241 10.6
2003-07-02 06:36:38 51°12.64 2°49.46 246.2 14.2 241 10.8
2003-07-02 06:36:44 51°12.63 2°49.43 246.8 14.3 242 10.7
2003-07-02 06:36:48 51°12.62 2°49.41 246.1 14.2 240 10.5
2003-07-02 06:36:54 51°12.61 2°49.38 245.7 14.2 240 10.7
2003-07-02 06:36:58 51°12.6 2°49.35 246.2 14.2 241 10.5
2003-07-02 06:37:04 51°12.59 2°49.32 246.4 14.1 241 10.7
2003-07-02 06:37:08 51°12.58 2°49.3 246 14.1 241 10.5
2003-07-02 06:37:14 51°12.57 2°49.27 246 14.3 241 10.7
2003-07-02 06:37:18 51°12.56 2°49.24 246.7 14 242 10.8
2003-07-02 06:37:24 51°12.55 2°49.21 246.2 14.1 240 10.8
2003-07-02 06:37:28 51°12.55 2°49.19 246.5 14.1 242 10.7
2003-07-02 06:37:34 51°12.53 2°49.16 245.9 14.1 240 10.6
2003-07-02 06:37:38 51°12.53 2°49.13 246.3 14.1 242 10.8
2003-07-02 06:37:44 51°12.52 2°49.1 246.2 14.2 241 10.6
2003-07-02 06:37:48 51°12.51 2°49.08 246.1 14.1 240 10.6
2003-07-02 06:37:54 51°12.5 2°49.05 245.8 14.1 241 10.6
2003-07-02 06:38:00 51°12.49 2°49.01 246.1 14.1 241 10.6
2003-07-02 06:38:04 51°12.48 2°48.99 246 14.1 241 10.5
2003-07-02 06:38:08 51°12.47 2°48.97 246.6 14.1 242 10.7
2003-07-02 06:38:14 51°12.46 2°48.94 246.4 14.1 241 10.8
2003-07-02 06:38:18 51°12.45 2°48.92 246.2 14.2 241 10.7
2003-07-02 06:38:24 51°12.44 2°48.88 246.3 14.1 241 10.7
2003-07-02 06:38:28 51°12.43 2°48.86 245.9 14.1 241 10.7
2003-07-02 06:38:34 51°12.42 2°48.83 245.9 14.1 241 10.7
2003-07-02 06:38:38 51°12.41 2°48.81 245.6 14.2 241 10.6
2003-07-02 06:38:44 51°12.4 2°48.77 246.6 14.1 242 10.7
2003-07-02 06:38:48 51°12.4 2°48.75 246 14.1 241 10.8
2003-07-02 06:38:54 51°12.38 2°48.72 246.6 14.1 243 10.7
2003-07-02 06:38:58 51°12.38 2°48.7 246 14.2 241 10.7
2003-07-02 06:39:04 51°12.37 2°48.66 246.5 14.1 242 10.9
2003-07-02 06:39:08 51°12.36 2°48.64 246.3 14.1 241 10.6
2003-07-02 06:39:14 51°12.35 2°48.61 246.4 14.1 241 10.8
2003-07-02 06:39:18 51°12.34 2°48.59 245.6 14.1 240 10.8
2003-07-02 06:39:24 51°12.33 2°48.55 246.1 14.1 242 10.8
2003-07-02 06:39:28 51°12.32 2°48.53 246 14.1 242 10.8
2003-07-02 06:39:34 51°12.31 2°48.5 245.7 14.1 241 10.8
2003-07-02 06:39:38 51°12.3 2°48.48 246.2 14 241 10.9
2003-07-02 06:39:44 51°12.29 2°48.45 246.3 14 241 10.8
2003-07-02 06:39:48 51°12.28 2°48.42 246.3 14 242 10.9
2003-07-02 06:39:54 51°12.27 2°48.39 246 14 241 10.8
2003-07-02 06:39:58 51°12.26 2°48.37 246.1 14.1 241 10.9
2003-07-02 06:40:04 51°12.25 2°48.34 245.9 14.2 240 10.8
2003-07-02 06:40:08 51°12.25 2°48.31 246 14.1 241 10.6
2003-07-02 06:40:14 51°12.23 2°48.28 246.2 14.1 241 11
2003-07-02 06:40:18 51°12.23 2°48.26 245.7 14.2 240 10.9
2003-07-02 06:40:24 51°12.22 2°48.23 246.1 14.2 241 10.7
2003-07-02 06:40:28 51°12.21 2°48.2 246 14.2 242 10.8
2003-07-02 06:40:34 51°12.2 2°48.17 246.5 14.1 242 10.7
2003-07-02 06:40:38 51°12.19 2°48.15 246.5 14.2 241 10.8
2003-07-02 06:40:44 51°12.18 2°48.12 245.8 14.2 241 10.8
2003-07-02 06:40:48 51°12.17 2°48.09 246 14.1 242 10.9
2003-07-02 06:40:54 51°12.16 2°48.06 246 14.1 242 10.9
2003-07-02 06:41:00 51°12.15 2°48.03 245.9 14.2 241 10.8
2003-07-02 06:41:04 51°12.14 2°48.01 246.2 14.1 241 11
2003-07-02 06:41:08 51°12.13 2°47.99 245.6 14 241 10.8
2003-07-02 06:41:14 51°12.12 2°47.95 245.8 14.1 241 10.9
2003-07-02 06:41:18 51°12.11 2°47.93 246.2 14.1 242 10.9
2003-07-02 06:41:24 51°12.1 2°47.9 246 14.1 242 10.7
2003-07-02 06:41:28 51°12.1 2°47.88 246.7 14.2 242 10.9
2003-07-02 06:41:34 51°12.08 2°47.84 245.9 14.1 242 10.8
2003-07-02 06:41:38 51°12.08 2°47.82 246.4 14.2 242 10.6
2003-07-02 06:41:44 51°12.07 2°47.79 246.9 14.1 242 10.8
2003-07-02 06:41:48 51°12.06 2°47.77 246.2 14.1 242 10.8
2003-07-02 06:41:54 51°12.05 2°47.73 246.8 14.2 242 10.7
2003-07-02 06:41:58 51°12.04 2°47.71 248.5 14 245 10.9
2003-07-02 06:42:04 51°12.03 2°47.68 247.8 14.1 242 10.8
2003-07-02 06:42:08 51°12.02 2°47.65 249.2 14.2 245 10.9
2003-07-02 06:42:14 51°12.01 2°47.62 249.1 14.1 245 10.8
2003-07-02 06:42:18 51°12.01 2°47.6 249.1 14.2 245 10.8
2003-07-02 06:42:24 51°12 2°47.56 249.6 14.2 245 10.8
2003-07-02 06:42:28 51°11.99 2°47.54 249.8 14.2 245 10.9
2003-07-02 06:42:34 51°11.98 2°47.51 249.3 14.1 244 11
2003-07-02 06:42:38 51°11.97 2°47.48 249.6 14.2 246 10.9
2003-07-02 06:42:44 51°11.96 2°47.45 249.4 14.3 244 10.9
2003-07-02 06:42:48 51°11.96 2°47.43 249.8 14.2 246 11
2003-07-02 06:42:54 51°11.95 2°47.39 249.5 14.2 244 11
2003-07-02 06:43:00 51°11.94 2°47.36 248.9 14.2 245 10.8
2003-07-02 06:43:04 51°11.93 2°47.34 249.4 14.3 244 10.9
2003-07-02 06:43:08 51°11.92 2°47.31 249.6 14.3 246 11
2003-07-02 06:43:14 51°11.91 2°47.28 249.2 14.2 244 10.8
2003-07-02 06:43:20 51°11.9 2°47.25 249.6 14.2 245 10.8
2003-07-02 06:43:24 51°11.9 2°47.22 249.6 14.2 245 10.8
2003-07-02 06:43:28 51°11.89 2°47.2 249.6 14.3 244 10.8
2003-07-02 06:43:34 51°11.88 2°47.16 251.1 14.3 247 10.9
2003-07-02 06:43:38 51°11.87 2°47.14 251.4 14.3 247 10.8
2003-07-02 06:43:44 51°11.86 2°47.11 252.2 14.3 247 10.9
2003-07-02 06:43:48 51°11.86 2°47.08 252.1 14.3 248 11
2003-07-02 06:43:54 51°11.85 2°47.05 252.5 14.3 247 10.9
2003-07-02 06:43:58 51°11.84 2°47.03 252.7 14.3 247 11
2003-07-02 06:44:04 51°11.84 2°46.99 252.5 14.3 249 10.9
2003-07-02 06:44:08 51°11.83 2°46.97 252.5 14.3 247 11
2003-07-02 06:44:14 51°11.82 2°46.93 252.4 14.3 248 11
2003-07-02 06:44:18 51°11.81 2°46.91 252.5 14.3 248 10.9
2003-07-02 06:44:24 51°11.81 2°46.87 252.5 14.3 247 11.1
2003-07-02 06:44:28 51°11.8 2°46.85 253 14.2 249 11.1
2003-07-02 06:44:34 51°11.79 2°46.82 252.4 14.2 247 11
2003-07-02 06:44:38 51°11.79 2°46.79 253.2 14.3 249 11.1
2003-07-02 06:44:44 51°11.78 2°46.76 252.5 14.3 248 11.2
2003-07-02 06:44:48 51°11.77 2°46.73 252.5 14.2 248 11
2003-07-02 06:44:54 51°11.76 2°46.7 251.9 14.1 246 11.2
2003-07-02 06:45:00 51°11.75 2°46.66 249.6 14.2 245 11
2003-07-02 06:45:04 51°11.75 2°46.64 248.5 14.3 244 11
2003-07-02 06:45:08 51°11.74 2°46.62 247.6 14.3 243 11.2
2003-07-02 06:45:14 51°11.73 2°46.59 246.6 14.1 243 11.1
2003-07-02 06:45:20 51°11.72 2°46.55 245.8 14.3 242 11.1
2003-07-02 06:45:24 51°11.71 2°46.53 246.7 14.3 243 11.1
2003-07-02 06:45:28 51°11.7 2°46.51 246 14.2 242 11.1
2003-07-02 06:45:34 51°11.69 2°46.48 245.4 14.2 241 11.2
2003-07-02 06:45:38 51°11.68 2°46.45 245.9 14.3 242 11.2
2003-07-02 06:45:44 51°11.67 2°46.42 245.9 14.3 242 11.1
2003-07-02 06:45:48 51°11.66 2°46.4 246 14.3 242 11.1
2003-07-02 06:45:54 51°11.65 2°46.36 245.8 14.3 241 11
2003-07-02 06:45:58 51°11.65 2°46.34 246.2 14.3 243 11
2003-07-02 06:46:04 51°11.63 2°46.31 246 14.3 242 11.1
2003-07-02 06:46:08 51°11.63 2°46.29 246 14.3 242 11.1
2003-07-02 06:46:14 51°11.62 2°46.25 246.2 14.3 242 11.1
2003-07-02 06:46:18 51°11.61 2°46.23 245.8 14.2 242 11
2003-07-02 06:46:24 51°11.6 2°46.2 246.5 14.2 243 11
2003-07-02 06:46:28 51°11.59 2°46.17 246 14.3 242 10.9
2003-07-02 06:46:34 51°11.58 2°46.14 245.9 14.3 242 11
2003-07-02 06:46:38 51°11.57 2°46.12 246 14.3 242 10.9
2003-07-02 06:46:44 51°11.56 2°46.08 246.5 14.3 244 10.8
2003-07-02 06:46:48 51°11.55 2°46.06 246.1 14.4 241 10.9
2003-07-02 06:46:54 51°11.54 2°46.03 246.8 14.3 244 10.8
2003-07-02 06:46:58 51°11.54 2°46.01 246.2 14.2 242 10.8
2003-07-02 06:47:04 51°11.52 2°45.97 245.5 14.2 242 10.7
2003-07-02 06:47:08 51°11.52 2°45.95 246.2 14.3 242 10.8
2003-07-02 06:47:14 51°11.51 2°45.92 246.2 14.2 242 10.7
2003-07-02 06:47:18 51°11.5 2°45.89 246.5 14.2 243 10.8
2003-07-02 06:47:24 51°11.49 2°45.86 246.2 14.2 242 10.8
2003-07-02 06:47:28 51°11.48 2°45.84 246 14.2 241 10.7
2003-07-02 06:47:34 51°11.47 2°45.81 246.4 14.2 243 10.7
2003-07-02 06:47:38 51°11.46 2°45.78 245.9 14.2 242 10.7
2003-07-02 06:47:44 51°11.45 2°45.75 246 14.3 242 10.7
2003-07-02 06:47:48 51°11.44 2°45.73 246.1 14.3 243 10.7
2003-07-02 06:47:54 51°11.43 2°45.69 246.4 14.3 243 10.6
2003-07-02 06:47:58 51°11.42 2°45.67 246.6 14.3 242 10.6
2003-07-02 06:48:04 51°11.41 2°45.64 246.3 14.3 242 10.6
2003-07-02 06:48:08 51°11.41 2°45.62 246.3 14.2 243 10.5
2003-07-02 06:48:14 51°11.39 2°45.58 245.3 14.3 242 10.5
2003-07-02 06:48:18 51°11.39 2°45.56 246.4 14.4 243 10.5
2003-07-02 06:48:24 51°11.38 2°45.53 246.1 14.1 243 10.5
2003-07-02 06:48:28 51°11.37 2°45.51 245.4 14.2 240 10.5
2003-07-02 06:48:34 51°11.36 2°45.47 246.9 14.3 243 10.4
2003-07-02 06:48:38 51°11.35 2°45.45 245.7 14.2 242 10.4
2003-07-02 06:48:44 51°11.34 2°45.42 246.2 14.2 243 10.4
2003-07-02 06:48:48 51°11.33 2°45.39 245.9 14.3 242 10.4
2003-07-02 06:48:54 51°11.32 2°45.36 246.7 14.2 243 10.3
2003-07-02 06:48:58 51°11.31 2°45.34 246.2 14 242 10.5
2003-07-02 06:49:04 51°11.3 2°45.3 246.2 14.2 242 10.3
2003-07-02 06:49:08 51°11.3 2°45.28 246.1 14.2 242 10.3
2003-07-02 06:49:14 51°11.28 2°45.25 245.6 14.1 241 10.3
2003-07-02 06:49:18 51°11.28 2°45.23 245.6 14.2 241 10.3
2003-07-02 06:49:24 51°11.27 2°45.19 246.1 14.2 243 10.3
2003-07-02 06:49:28 51°11.26 2°45.17 246 14.1 242 10.2
2003-07-02 06:49:34 51°11.25 2°45.14 246.7 14.3 243 10.3
2003-07-02 06:49:38 51°11.24 2°45.12 246.5 14.2 242 10
2003-07-02 06:49:44 51°11.23 2°45.08 246.2 14.1 242 10.1
2003-07-02 06:49:48 51°11.22 2°45.06 246.6 14.1 243 10
2003-07-02 06:49:54 51°11.21 2°45.03 247.3 14.2 243 10
2003-07-02 06:49:58 51°11.21 2°45.01 246.3 14.1 241 10.1
2003-07-02 06:50:04 51°11.19 2°44.97 246.5 14.2 244 10.1
2003-07-02 06:50:08 51°11.19 2°44.95 246.9 14.1 243 10.1
2003-07-02 06:50:14 51°11.18 2°44.92 246.7 14.1 243 10
2003-07-02 06:50:18 51°11.17 2°44.89 246.2 14.2 243 9.9
2003-07-02 06:50:24 51°11.16 2°44.86 246.4 14.2 243 10
2003-07-02 06:50:28 51°11.15 2°44.84 246.1 14.2 242 9.9
2003-07-02 06:50:34 51°11.14 2°44.81 245.7 14.1 242 9.9
2003-07-02 06:50:38 51°11.13 2°44.78 246.5 14.2 243 9.9
2003-07-02 06:50:44 51°11.12 2°44.75 246.7 14.3 242 9.8
2003-07-02 06:50:48 51°11.12 2°44.73 247 14.3 243 9.9
2003-07-02 06:50:54 51°11.1 2°44.7 246.2 14.1 242 9.8
2003-07-02 06:50:58 51°11.1 2°44.67 245.7 14.1 242 9.8
2003-07-02 06:51:04 51°11.09 2°44.64 246.1 14.3 243 9.7
2003-07-02 06:51:08 51°11.08 2°44.62 246.5 14.1 243 9.6
2003-07-02 06:51:14 51°11.07 2°44.58 245.8 14.1 242 9.7
2003-07-02 06:51:18 51°11.06 2°44.56 246.1 14.1 243 9.7
2003-07-02 06:51:24 51°11.05 2°44.53 246.1 14.3 243 9.6
2003-07-02 06:51:28 51°11.04 2°44.5 246.7 14.2 243 9.6
2003-07-02 06:51:34 51°11.03 2°44.47 246.3 14.1 243 9.7
2003-07-02 06:51:38 51°11.03 2°44.45 246.1 14.2 242 9.5
2003-07-02 06:51:44 51°11.02 2°44.41 246.4 14.3 244 9.5
2003-07-02 06:51:48 51°11.01 2°44.39 246.8 14.2 243 9.5
2003-07-02 06:51:54 51°11 2°44.36 246.5 14.2 244 9.5
2003-07-02 06:51:58 51°10.99 2°44.34 246.1 14.2 242 9.5
2003-07-02 06:52:04 51°10.98 2°44.3 245.9 14.2 243 9.4
2003-07-02 06:52:08 51°10.97 2°44.28 246.3 14.2 243 9.5
2003-07-02 06:52:14 51°10.96 2°44.25 246.7 14.1 244 9.4
2003-07-02 06:52:18 51°10.95 2°44.23 246.3 14 242 9.3
2003-07-02 06:52:24 51°10.94 2°44.19 246 14.1 243 9.4
2003-07-02 06:52:28 51°10.94 2°44.17 246.6 14.2 244 9.3
2003-07-02 06:52:34 51°10.93 2°44.14 246.2 14.2 242 9.3
2003-07-02 06:52:38 51°10.92 2°44.11 247 14.1 244 9.3
2003-07-02 06:52:44 51°10.91 2°44.08 245.9 14.1 241 9.3
2003-07-02 06:52:48 51°10.9 2°44.06 246.6 14.2 244 9.2
2003-07-02 06:52:54 51°10.89 2°44.03 246.7 14.2 242 9.2
2003-07-02 06:52:58 51°10.88 2°44 246.7 14.2 244 9.1
2003-07-02 06:53:04 51°10.87 2°43.97 246.8 14.1 243 9.2
2003-07-02 06:53:08 51°10.86 2°43.95 246.8 14.2 244 9.1
2003-07-02 06:53:14 51°10.85 2°43.92 247 14.2 243 9.1
2003-07-02 06:53:18 51°10.85 2°43.89 246.6 14.1 243 9
2003-07-02 06:53:24 51°10.83 2°43.86 246.7 14.1 243 9.1
2003-07-02 06:53:28 51°10.83 2°43.84 246.3 14.1 243 9
2003-07-02 06:53:34 51°10.82 2°43.8 245.9 14.2 242 8.9
2003-07-02 06:53:38 51°10.81 2°43.78 246.9 14.2 244 9
2003-07-02 06:53:44 51°10.8 2°43.75 246.3 14.2 242 8.8
2003-07-02 06:53:48 51°10.79 2°43.73 246.8 14.1 244 8.9
2003-07-02 06:53:54 51°10.78 2°43.69 246 14.1 240 9
2003-07-02 06:53:58 51°10.77 2°43.67 246.1 14.1 244 8.8
2003-07-02 06:54:04 51°10.76 2°43.64 246 14.1 242 8.8
2003-07-02 06:54:08 51°10.76 2°43.62 246.3 14.2 243 8.7
2003-07-02 06:54:14 51°10.74 2°43.58 246.1 14.1 242 8.7
2003-07-02 06:54:18 51°10.74 2°43.56 246.6 14.1 244 8.8
2003-07-02 06:54:24 51°10.73 2°43.53 246 14.2 242 8.8
2003-07-02 06:54:28 51°10.72 2°43.5 246.8 14.2 244 8.8
2003-07-02 06:54:34 51°10.71 2°43.47 246.9 14.1 243 8.8
2003-07-02 06:54:38 51°10.7 2°43.45 247.4 14 243 8.8
2003-07-02 06:54:44 51°10.69 2°43.42 245.8 14.1 242 8.7
2003-07-02 06:54:48 51°10.69 2°43.39 246.6 14.2 244 8.7
2003-07-02 06:54:54 51°10.67 2°43.36 246.8 14.2 244 8.7
2003-07-02 06:54:58 51°10.67 2°43.34 246.9 14.2 244 8.7
2003-07-02 06:55:04 51°10.66 2°43.3 247 14.1 244 8.7
2003-07-02 06:55:08 51°10.65 2°43.28 247.4 14.1 245 8.7
2003-07-02 06:55:14 51°10.64 2°43.25 247 14.2 244 8.6
2003-07-02 06:55:18 51°10.63 2°43.23 247.1 14.2 243 8.6
2003-07-02 06:55:24 51°10.62 2°43.19 246.8 14.2 244 8.5
2003-07-02 06:55:28 51°10.62 2°43.17 246.5 14.1 243 8.4
2003-07-02 06:55:34 51°10.6 2°43.14 246.2 14.1 243 8.4
2003-07-02 06:55:38 51°10.6 2°43.11 245.8 14.2 243 8.4
2003-07-02 06:55:44 51°10.59 2°43.08 246.4 14.2 244 8.4
2003-07-02 06:55:48 51°10.58 2°43.06 246.2 14.1 243 8.4
2003-07-02 06:55:54 51°10.57 2°43.02 246.7 14.2 244 8.4
2003-07-02 06:55:58 51°10.56 2°43 246.7 14 243 8.4
2003-07-02 06:56:04 51°10.55 2°42.97 246.5 14.1 244 8.4
2003-07-02 06:56:08 51°10.54 2°42.95 246.9 14.1 244 8.4
2003-07-02 06:56:14 51°10.53 2°42.91 246.8 14.1 243 8.4
2003-07-02 06:56:18 51°10.53 2°42.89 246.3 14.1 243 8.3
2003-07-02 06:56:24 51°10.52 2°42.86 246.8 14.1 243 8.2
2003-07-02 06:56:28 51°10.51 2°42.84 246.7 14.1 243 8.2
2003-07-02 06:56:34 51°10.5 2°42.8 246.9 14 244 8.2
2003-07-02 06:56:40 51°10.49 2°42.77 245.5 14.1 242 8.3
2003-07-02 06:56:44 51°10.48 2°42.75 246.2 14.1 244 8.2
2003-07-02 06:56:48 51°10.47 2°42.72 246.1 14.1 242 8.2
2003-07-02 06:56:54 51°10.46 2°42.69 246.6 14.1 244 8.2
2003-07-02 06:56:58 51°10.46 2°42.67 246.4 14.1 242 8.2
2003-07-02 06:57:04 51°10.45 2°42.64 246.8 14.1 244 8.2
2003-07-02 06:57:08 51°10.44 2°42.61 246.2 14.1 244 8.2
2003-07-02 06:57:14 51°10.43 2°42.58 246.7 14.2 245 8.2
2003-07-02 06:57:18 51°10.42 2°42.56 246.8 14.1 244 8.1
2003-07-02 06:57:24 51°10.41 2°42.52 246.8 14.1 244 8.1
2003-07-02 06:57:28 51°10.41 2°42.5 247.4 14 244 8.2
2003-07-02 06:57:34 51°10.39 2°42.47 246.8 14.1 244 8.1
2003-07-02 06:57:38 51°10.39 2°42.45 247.2 14.1 245 8.1
2003-07-02 06:57:44 51°10.38 2°42.41 246.6 14 243 8.2
2003-07-02 06:57:48 51°10.37 2°42.39 247.3 14 245 8
2003-07-02 06:57:54 51°10.36 2°42.36 246.3 14 243 8
2003-07-02 06:57:58 51°10.35 2°42.33 247.1 14.1 243 8.1
2003-07-02 06:58:04 51°10.34 2°42.3 246 14.2 243 8
2003-07-02 06:58:08 51°10.34 2°42.28 247.2 14.1 245 8
2003-07-02 06:58:14 51°10.33 2°42.24 247.2 14.1 244 8
2003-07-02 06:58:20 51°10.32 2°42.21 248.2 14 246 8
2003-07-02 06:58:24 51°10.31 2°42.19 247.9 14 245 8.1
2003-07-02 06:58:28 51°10.3 2°42.17 248.9 14.1 247 8.1
2003-07-02 06:58:32 51°10.3 2°42.14 248.9 14.1 246 8.1
2003-07-02 06:58:38 51°10.29 2°42.11 249.5 14 245 8.1
2003-07-02 06:58:44 51°10.28 2°42.07 249.2 14 246 8.1
2003-07-02 06:58:48 51°10.27 2°42.05 248.1 14 245 8
2003-07-02 06:58:54 51°10.26 2°42.02 248.6 14.2 247 7.9
2003-07-02 06:58:58 51°10.26 2°42 248.5 14.1 245 8
2003-07-02 06:59:04 51°10.25 2°41.96 248.1 14.1 247 8
2003-07-02 06:59:08 51°10.24 2°41.94 248.2 14.1 245 8
2003-07-02 06:59:14 51°10.23 2°41.9 249.1 14.1 247 8.1
2003-07-02 06:59:18 51°10.22 2°41.88 248.5 14 245 8.1
2003-07-02 06:59:24 51°10.21 2°41.85 248.2 14.1 246 8
2003-07-02 06:59:28 51°10.21 2°41.83 249.1 14.2 246 8.1
2003-07-02 06:59:34 51°10.2 2°41.79 248.7 14.2 246 8.1
2003-07-02 06:59:38 51°10.19 2°41.77 248.9 14.1 246 8
2003-07-02 06:59:44 51°10.18 2°41.73 248.8 14.1 246 7.9
2003-07-02 06:59:48 51°10.18 2°41.71 249.2 14.1 247 8
2003-07-02 06:59:54 51°10.17 2°41.68 248.4 14.2 246 8
2003-07-02 06:59:58 51°10.16 2°41.65 248.9 14.1 245 8.1
2003-07-02 07:00:04 51°10.15 2°41.62 248.2 14.1 245 8
2003-07-02 07:00:08 51°10.14 2°41.6 248.5 14 246 8.1
2003-07-02 07:00:14 51°10.13 2°41.56 247.6 14.2 245 8
2003-07-02 07:00:20 51°10.12 2°41.53 248.2 14.1 245 8
2003-07-02 07:00:24 51°10.12 2°41.51 248.2 14.1 246 8
2003-07-02 07:00:28 51°10.11 2°41.49 248.2 14.1 245 8
2003-07-02 07:00:34 51°10.1 2°41.45 247.9 14.1 245 8.1
2003-07-02 07:00:40 51°10.09 2°41.42 248 14.1 246 8
2003-07-02 07:00:44 51°10.08 2°41.39 248.2 14.1 245 8.1
2003-07-02 07:00:48 51°10.08 2°41.37 248.2 14.1 245 8
2003-07-02 07:00:54 51°10.07 2°41.34 247.9 14.2 245 8.1
2003-07-02 07:00:58 51°10.06 2°41.31 248.9 14.1 247 8
2003-07-02 07:01:04 51°10.05 2°41.28 248.2 14.1 246 8.1
2003-07-02 07:01:08 51°10.05 2°41.26 248.9 14.1 247 8.1
2003-07-02 07:01:14 51°10.04 2°41.22 247.7 14.1 245 8
2003-07-02 07:01:18 51°10.03 2°41.2 248.8 14 247 8
2003-07-02 07:01:24 51°10.02 2°41.17 248.2 14 245 8.1
2003-07-02 07:01:28 51°10.01 2°41.14 247.7 14.1 246 8
2003-07-02 07:01:34 51°10 2°41.11 248.5 14.2 247 8.1
2003-07-02 07:01:40 51°9.99 2°41.08 248.1 14 245 8.1
2003-07-02 07:01:44 51°9.99 2°41.05 247.8 14 245 8.1
2003-07-02 07:01:48 51°9.98 2°41.03 247.8 14.1 245 8.1
2003-07-02 07:01:54 51°9.97 2°41 248.4 14.1 246 8.1
2003-07-02 07:02:00 51°9.96 2°40.96 247.9 14.1 246 8.1
2003-07-02 07:02:04 51°9.95 2°40.94 248.1 14.1 246 8.2
2003-07-02 07:02:08 51°9.95 2°40.92 248.2 14.2 245 8.2
2003-07-02 07:02:14 51°9.94 2°40.88 248.9 14 247 8.2
2003-07-02 07:02:20 51°9.93 2°40.85 248.2 14.1 246 8.2
2003-07-02 07:02:24 51°9.92 2°40.83 249.1 14.1 247 8.2
2003-07-02 07:02:28 51°9.92 2°40.8 248.6 14.1 246 8.2
2003-07-02 07:02:32 51°9.91 2°40.78 248.5 14.1 246 8.2
2003-07-02 07:02:40 51°9.9 2°40.74 248.2 14.1 247 8.2
2003-07-02 07:02:44 51°9.89 2°40.71 248.8 14 245 8.2
2003-07-02 07:02:48 51°9.88 2°40.69 248.4 14.1 246 8.3
2003-07-02 07:02:54 51°9.87 2°40.66 248.4 14.3 246 8.2
2003-07-02 07:03:00 51°9.86 2°40.62 248.9 14.2 247 8.3
2003-07-02 07:03:04 51°9.86 2°40.6 248.5 14.1 246 8.3
2003-07-02 07:03:08 51°9.85 2°40.58 248.9 14.2 247 8.3
2003-07-02 07:03:14 51°9.84 2°40.54 249.1 14.2 247 8.2
2003-07-02 07:03:20 51°9.83 2°40.51 249 14.2 246 8.2
2003-07-02 07:03:24 51°9.83 2°40.49 249.1 14.2 247 8.3
2003-07-02 07:03:28 51°9.82 2°40.46 248.6 14.3 246 8.2
2003-07-02 07:03:34 51°9.81 2°40.43 248.9 14.2 247 8.3
2003-07-02 07:03:40 51°9.8 2°40.39 248.2 14.1 246 8.2
2003-07-02 07:03:44 51°9.79 2°40.37 247.9 14.1 245 8.1
2003-07-02 07:03:48 51°9.79 2°40.35 247.6 14.2 245 8.1
2003-07-02 07:03:54 51°9.78 2°40.31 247.9 14.2 245 8.2
2003-07-02 07:04:00 51°9.77 2°40.28 247.8 14.2 246 8.1
2003-07-02 07:04:04 51°9.76 2°40.26 248 14.1 245 8.2
2003-07-02 07:04:08 51°9.76 2°40.23 248.1 14.2 246 8.1
2003-07-02 07:04:14 51°9.75 2°40.2 248.2 14.1 245 8.2
2003-07-02 07:04:20 51°9.74 2°40.17 247.8 14.3 247 8.2
2003-07-02 07:04:24 51°9.73 2°40.14 248.5 14.2 245 8.2
2003-07-02 07:04:28 51°9.72 2°40.12 248.8 14.2 246 8.3
2003-07-02 07:04:34 51°9.71 2°40.09 248.3 14.1 246 8.3
2003-07-02 07:04:40 51°9.7 2°40.05 248 14.2 246 8.4
2003-07-02 07:04:44 51°9.7 2°40.03 248 14.3 245 8.3
2003-07-02 07:04:48 51°9.69 2°40.01 247.8 14.2 246 8.3
2003-07-02 07:04:54 51°9.68 2°39.97 248.2 14.2 244 8.2
2003-07-02 07:05:00 51°9.67 2°39.94 248.3 14.2 246 8.1
2003-07-02 07:05:04 51°9.66 2°39.92 248.1 14.2 245 8.3
2003-07-02 07:05:08 51°9.66 2°39.89 248.2 14.1 246 8.3
2003-07-02 07:05:14 51°9.65 2°39.86 247.6 14.2 245 8.4
2003-07-02 07:05:20 51°9.64 2°39.82 248.3 14.2 245 8.4
2003-07-02 07:05:24 51°9.63 2°39.8 248 14.3 245 8.3
2003-07-02 07:05:28 51°9.63 2°39.78 248.3 14.2 246 8.4
2003-07-02 07:05:34 51°9.62 2°39.74 247.7 14.2 245 8.4
2003-07-02 07:05:38 51°9.61 2°39.72 249.3 14.2 247 8.4
2003-07-02 07:05:44 51°9.6 2°39.69 249.5 14.2 246 8.3
2003-07-02 07:05:48 51°9.59 2°39.66 249.8 14.2 247 8.3
2003-07-02 07:05:54 51°9.59 2°39.63 250.1 14.2 247 8.4
2003-07-02 07:05:58 51°9.58 2°39.61 250.4 14.2 248 8.4
2003-07-02 07:06:04 51°9.57 2°39.57 250.6 14.2 248 8.4
2003-07-02 07:06:08 51°9.56 2°39.55 250.7 14.2 248 8.5
2003-07-02 07:06:14 51°9.56 2°39.51 250.7 14.2 248 8.3
2003-07-02 07:06:20 51°9.55 2°39.48 250.7 14.2 247 8.4
2003-07-02 07:06:24 51°9.54 2°39.46 250.4 14.3 248 8.4
2003-07-02 07:06:28 51°9.54 2°39.43 250.6 14.2 248 8.4
2003-07-02 07:06:34 51°9.53 2°39.4 250.3 14.2 247 8.4
2003-07-02 07:06:38 51°9.52 2°39.37 250.4 14.2 247 8.3
2003-07-02 07:06:44 51°9.51 2°39.34 250.7 14.2 248 8.4
2003-07-02 07:06:48 51°9.51 2°39.32 250.5 14.3 247 8.4
2003-07-02 07:06:54 51°9.5 2°39.28 250.2 14.2 247 8.3
2003-07-02 07:07:00 51°9.49 2°39.25 250 14.2 248 8.4
2003-07-02 07:07:04 51°9.48 2°39.22 250.3 14.2 247 8.4
2003-07-02 07:07:08 51°9.48 2°39.2 250.2 14.2 247 8.5
2003-07-02 07:07:14 51°9.47 2°39.17 250.4 14.2 247 8.4
2003-07-02 07:07:20 51°9.46 2°39.13 250.5 14.2 247 8.4
2003-07-02 07:07:24 51°9.45 2°39.11 249.8 14.1 247 8.3
2003-07-02 07:07:28 51°9.44 2°39.09 250 14.1 247 8.4
2003-07-02 07:07:34 51°9.44 2°39.05 249.7 14.2 247 8.3
2003-07-02 07:07:38 51°9.43 2°39.03 249.8 14.2 248 8.3
2003-07-02 07:07:44 51°9.42 2°38.99 249.9 14.1 248 8.3
2003-07-02 07:07:48 51°9.41 2°38.97 250 14.2 247 8.3
2003-07-02 07:07:54 51°9.41 2°38.94 250.5 14.1 247 8.4
2003-07-02 07:08:00 51°9.4 2°38.9 250.7 14.1 248 8.4
2003-07-02 07:08:04 51°9.39 2°38.88 250.4 14.1 248 8.4
2003-07-02 07:08:08 51°9.39 2°38.85 250.4 14.1 248 8.4
2003-07-02 07:08:14 51°9.38 2°38.82 249.6 14.2 247 8.5
2003-07-02 07:08:18 51°9.37 2°38.8 250.2 14.2 247 8.5
2003-07-02 07:08:24 51°9.36 2°38.76 249.7 14.2 247 8.5
2003-07-02 07:08:28 51°9.35 2°38.74 249.5 14.1 247 8.5
2003-07-02 07:08:34 51°9.35 2°38.7 250 14.1 249 8.6
2003-07-02 07:08:40 51°9.34 2°38.67 250.2 14.2 247 8.5
2003-07-02 07:08:44 51°9.33 2°38.65 249.9 14.3 248 8.5
2003-07-02 07:08:48 51°9.32 2°38.62 250.7 14.2 248 8.5
2003-07-02 07:08:52 51°9.32 2°38.6 250.3 14.2 247 8.5
2003-07-02 07:09:00 51°9.31 2°38.55 250.8 14.2 248 8.5
2003-07-02 07:09:04 51°9.3 2°38.53 250.8 14.2 249 8.4
2003-07-02 07:09:08 51°9.3 2°38.51 252.7 14.2 251 8.4
2003-07-02 07:09:14 51°9.29 2°38.47 254.7 14.2 252 8.5
2003-07-02 07:09:20 51°9.28 2°38.44 255.4 14.2 253 8.5
2003-07-02 07:09:24 51°9.28 2°38.41 256.1 14.2 253 8.4
2003-07-02 07:09:28 51°9.27 2°38.39 257 14.2 254 8.5
2003-07-02 07:09:34 51°9.27 2°38.35 257.1 14.2 254 8.5
2003-07-02 07:09:40 51°9.26 2°38.31 257.2 14.2 254 8.6
2003-07-02 07:09:44 51°9.25 2°38.29 256.3 14.2 253 8.6
2003-07-02 07:09:48 51°9.25 2°38.27 256.2 14.2 253 8.6
2003-07-02 07:09:54 51°9.24 2°38.23 256.2 14.1 252 8.7
2003-07-02 07:10:00 51°9.24 2°38.2 256.1 14.3 253 8.7
2003-07-02 07:10:04 51°9.23 2°38.17 256.5 14.2 254 8.7
2003-07-02 07:10:08 51°9.23 2°38.15 256.8 14.2 254 8.7
2003-07-02 07:10:14 51°9.22 2°38.11 256.4 14.2 254 8.8
2003-07-02 07:10:20 51°9.21 2°38.07 256.7 14.2 253 8.7
2003-07-02 07:10:24 51°9.21 2°38.05 256.9 14.2 255 8.7
2003-07-02 07:10:28 51°9.2 2°38.03 257 14.2 253 8.7
2003-07-02 07:10:34 51°9.2 2°37.99 256.9 14.2 253 8.7
2003-07-02 07:10:40 51°9.19 2°37.95 256.6 14.2 253 8.7
2003-07-02 07:10:44 51°9.19 2°37.93 256.4 14.2 253 8.7
2003-07-02 07:10:48 51°9.18 2°37.91 256.3 14.2 253 8.7
2003-07-02 07:10:54 51°9.17 2°37.87 256.2 14.2 253 8.6
2003-07-02 07:10:58 51°9.17 2°37.85 256.2 14.2 254 8.6
2003-07-02 07:11:04 51°9.16 2°37.81 256.4 14.2 253 8.7
2003-07-02 07:11:08 51°9.16 2°37.79 256.3 14.2 253 8.6
2003-07-02 07:11:14 51°9.15 2°37.75 256.2 14.2 252 8.7
2003-07-02 07:11:18 51°9.15 2°37.73 255.9 14 252 8.7
2003-07-02 07:11:24 51°9.14 2°37.69 255.4 13.8 253 8.6
2003-07-02 07:11:28 51°9.14 2°37.67 256 13.7 252 8.6
2003-07-02 07:11:34 51°9.13 2°37.63 258.4 13.5 256 8.7
2003-07-02 07:11:40 51°9.13 2°37.6 260.1 13.3 258 8.7
2003-07-02 07:11:44 51°9.12 2°37.58 262.1 13.1 258 8.7
2003-07-02 07:11:48 51°9.12 2°37.56 263.9 12.9 260 8.9
2003-07-02 07:11:54 51°9.12 2°37.52 264.9 12.4 260 8.9
2003-07-02 07:11:58 51°9.12 2°37.5 265.3 11.9 262 8.8
2003-07-02 07:12:04 51°9.11 2°37.47 265.9 11.5 262 8.8
2003-07-02 07:12:08 51°9.11 2°37.45 266.7 11 263 9
2003-07-02 07:12:14 51°9.11 2°37.42 266.8 10.5 261 9
2003-07-02 07:12:20 51°9.11 2°37.4 266.9 10 262 9
2003-07-02 07:12:24 51°9.11 2°37.38 266.6 9.6 261 9
2003-07-02 07:12:28 51°9.1 2°37.37 266.7 9.2 263 9.1
2003-07-02 07:12:34 51°9.1 2°37.34 266.9 8.6 262 9
2003-07-02 07:12:40 51°9.1 2°37.32 267.6 8 262 9
2003-07-02 07:12:44 51°9.1 2°37.31 268.1 7.7 263 9.1
2003-07-02 07:12:48 51°9.1 2°37.29 268.6 7.4 263 9
2003-07-02 07:12:54 51°9.1 2°37.28 269.6 6.7 264 9
2003-07-02 07:12:58 51°9.1 2°37.27 270.9 5.8 264 9.1
2003-07-02 07:13:04 51°9.1 2°37.25 272.7 5.3 267 9
2003-07-02 07:13:08 51°9.1 2°37.24 275.8 4.8 266 9.1
2003-07-02 07:13:14 51°9.1 2°37.23 279.4 4.1 269 9
2003-07-02 07:13:20 51°9.1 2°37.23 283.6 3 270 9.2
2003-07-02 07:13:24 51°9.1 2°37.22 289.3 2.3 268 9.1
2003-07-02 07:13:28 51°9.09 2°37.22 295.7 1.6 259 9.2
2003-07-02 07:13:34 51°9.09 2°37.22 299.7 1 231 9.2
2003-07-02 07:13:38 51°9.09 2°37.22 301.5 0.9 219 9.1
2003-07-02 07:13:44 51°9.09 2°37.21 301.7 0.7 215 9.2
2003-07-02 07:13:48 51°9.09 2°37.21 301.4 0.9 215 9.1
2003-07-02 07:13:54 51°9.09 2°37.21 301.2 0.8 214 9.2
2003-07-02 07:14:00 51°9.09 2°37.21 300.9 0.7 210 9.1
2003-07-02 07:14:04 51°9.09 2°37.21 300.8 0.8 212 -999
2003-07-02 07:14:10 51°9.09 2°37.21 300.5 0.7 208 -999
2003-07-02 07:14:16 51°9.08 2°37.21 300.5 0.7 207 -999
2003-07-02 07:14:20 51°9.08 2°37.21 300.8 0.6 203 -999
2003-07-02 07:14:26 51°9.08 2°37.21 301.2 0.6 204 -999
2003-07-02 07:14:32 51°9.08 2°37.21 302.2 0.5 203 -999
2003-07-02 07:14:36 51°9.08 2°37.21 303.3 0.7 203 -999
2003-07-02 07:14:42 51°9.08 2°37.21 304.4 0.6 199 -999
2003-07-02 07:14:46 51°9.08 2°37.21 305.5 0.7 198 -999
2003-07-02 07:14:52 51°9.08 2°37.21 306.5 0.7 198 -999
2003-07-02 07:14:58 51°9.08 2°37.21 307.4 0.7 189 -999
2003-07-02 07:15:02 51°9.08 2°37.21 308.4 0.7 188 -999
2003-07-02 07:15:08 51°9.08 2°37.21 309.1 0.8 188 -999
2003-07-02 07:15:14 51°9.08 2°37.21 309.9 0.7 181 -999
2003-07-02 07:15:18 51°9.07 2°37.21 311.3 0.7 178 -999
2003-07-02 07:15:24 51°9.07 2°37.21 312.6 0.7 179 -999
2003-07-02 07:15:28 51°9.07 2°37.21 314.2 0.7 176 -999
2003-07-02 07:15:34 51°9.07 2°37.21 315.9 0.8 174 -999
2003-07-02 07:15:38 51°9.07 2°37.21 317.7 0.8 174 -999
2003-07-02 07:15:44 51°9.07 2°37.21 319.3 0.8 171 4.7
2003-07-02 07:15:48 51°9.07 2°37.21 320.8 0.8 174 4.7
2003-07-02 07:15:52 51°9.07 2°37.21 322.5 0.8 171 9
2003-07-02 07:15:56 51°9.07 2°37.21 324.2 0.9 171 8.9
2003-07-02 07:16:00 51°9.07 2°37.21 325.9 0.9 173 4.6
2003-07-02 07:16:06 51°9.06 2°37.21 327.5 0.9 173 9
2003-07-02 07:16:10 51°9.06 2°37.21 329 0.8 171 9
2003-07-02 07:16:14 51°9.06 2°37.21 331 0.9 174 8.9
2003-07-02 07:16:20 51°9.06 2°37.21 333.1 0.9 180 8.9
2003-07-02 07:16:24 51°9.06 2°37.21 334.5 0.9 177 9
2003-07-02 07:16:28 51°9.06 2°37.21 336.5 0.9 184 8.9
2003-07-02 07:16:34 51°9.06 2°37.21 338.2 0.9 183 8.8
2003-07-02 07:16:38 51°9.06 2°37.21 339.9 0.9 185 8.9
2003-07-02 07:16:44 51°9.06 2°37.21 341.6 0.9 186 8.9
2003-07-02 07:16:48 51°9.05 2°37.21 343.5 0.9 185 8.8
2003-07-02 07:16:54 51°9.05 2°37.21 345.2 0.8 187 8.7
2003-07-02 07:16:58 51°9.05 2°37.21 346.9 0.8 178 8.8
2003-07-02 07:17:04 51°9.05 2°37.21 349.1 0.8 191 8.8
2003-07-02 07:17:08 51°9.05 2°37.21 351.3 0.8 187 8.7
2003-07-02 07:17:14 51°9.05 2°37.21 353.4 0.9 190 8.8
2003-07-02 07:17:18 51°9.05 2°37.21 356.2 0.9 190 8.8
2003-07-02 07:17:24 51°9.05 2°37.21 358.6 0.8 194 8.8
2003-07-02 07:17:28 51°9.05 2°37.21 1 0.8 196 8.7
2003-07-02 07:17:34 51°9.04 2°37.21 3.2 0.8 198 8.7
2003-07-02 07:17:40 51°9.04 2°37.21 5.1 0.8 202 8.7
2003-07-02 07:17:44 51°9.04 2°37.21 7.1 0.7 195 8.8
2003-07-02 07:17:48 51°9.04 2°37.2 8.8 0.7 206 8.7
2003-07-02 07:17:54 51°9.04 2°37.2 10.3 0.7 207 8.8
2003-07-02 07:18:00 51°9.04 2°37.2 12.1 0.6 205 8.8
2003-07-02 07:18:04 51°9.04 2°37.2 13.3 0.5 212 8.7
2003-07-02 07:18:08 51°9.04 2°37.2 14.5 0.5 197 8.7
2003-07-02 07:18:14 51°9.04 2°37.2 15.6 0.5 213 8.6
2003-07-02 07:18:20 51°9.04 2°37.2 16.6 0.4 215 8.7
2003-07-02 07:18:24 51°9.04 2°37.2 17.4 0.3 198 8.7
2003-07-02 07:18:28 51°9.04 2°37.2 18.8 0.4 196 8.6
2003-07-02 07:18:34 51°9.04 2°37.2 20.2 0.3 184 8.6
2003-07-02 07:18:38 51°9.04 2°37.2 21.6 0.2 213 8.6
2003-07-02 07:18:44 51°9.04 2°37.2 22.7 0.2 188 8.6
2003-07-02 07:18:48 51°9.03 2°37.2 23.7 0.3 220 8.6
2003-07-02 07:18:54 51°9.03 2°37.2 24.3 0.2 208 8.7
2003-07-02 07:18:58 51°9.03 2°37.2 24.8 0.2 240 8.7
2003-07-02 07:19:04 51°9.03 2°37.2 24.8 0.2 230 8.7
2003-07-02 07:19:08 51°9.03 2°37.2 24.8 0.1 251 8.8
2003-07-02 07:19:14 51°9.03 2°37.2 24.7 0.1 249 8.9
2003-07-02 07:19:18 51°9.03 2°37.2 24.6 0.1 317 8.8
2003-07-02 07:19:24 51°9.03 2°37.2 24.2 0.2 314 8.7
2003-07-02 07:19:28 51°9.03 2°37.2 23.6 0.2 336 8.8
2003-07-02 07:19:34 51°9.03 2°37.2 23   39 8.7
2003-07-02 07:19:40 51°9.04 2°37.2 22.9 0.2 349 8.6
2003-07-02 07:19:44 51°9.04 2°37.2 22.5 0.2 12 8.7
2003-07-02 07:19:48 51°9.04 2°37.2 22.1 0.3 329 8.8
2003-07-02 07:19:54 51°9.04 2°37.2 22 0.2 15 8.7
2003-07-02 07:19:58 51°9.04 2°37.2 21.5 0.4 341 8.6
2003-07-02 07:20:04 51°9.04 2°37.2 21.3 0.3 349 8.5
2003-07-02 07:20:08 51°9.04 2°37.2 20.7 0.3 344 8.6
2003-07-02 07:20:14 51°9.04 2°37.2 20.2 0.4 345 8.6
2003-07-02 07:20:18 51°9.04 2°37.2 19.5 0.5 350 8.7
2003-07-02 07:20:24 51°9.04 2°37.2 18.6 0.5 359 8.7
2003-07-02 07:20:28 51°9.04 2°37.2 17.3 0.5 343 8.9
2003-07-02 07:20:34 51°9.04 2°37.2 16.2 0.6 353 8.8
2003-07-02 07:20:38 51°9.04 2°37.2 14.9 0.5 340 8.7
2003-07-02 07:20:44 51°9.04 2°37.2 14.9 0.6 352 8.7
2003-07-02 07:20:48 51°9.04 2°37.2 14.5 0.5 353 8.7
2003-07-02 07:20:54 51°9.04 2°37.2 13.9 0.7 354 8.6
2003-07-02 07:21:00 51°9.05 2°37.2 13 0.6 341 8.7
2003-07-02 07:21:04 51°9.05 2°37.2 13 0.7 346 8.6
2003-07-02 07:21:08 51°9.05 2°37.19 12.4 0.7 345 8.8
2003-07-02 07:21:14 51°9.05 2°37.19 11.7 0.7 339 8.8
2003-07-02 07:21:18 51°9.05 2°37.19 10.9 0.8 337 8.9
2003-07-02 07:21:24 51°9.05 2°37.19 10.2 0.8 337 8.9
2003-07-02 07:21:28 51°9.05 2°37.19 9.5 0.8 336 9
2003-07-02 07:21:34 51°9.05 2°37.19 8.8 0.9 338 8.9
2003-07-02 07:21:38 51°9.05 2°37.19 8.1 0.9 341 8.9
2003-07-02 07:21:44 51°9.05 2°37.19 7.4 0.9 341 8.9
2003-07-02 07:21:48 51°9.06 2°37.19 6.9 0.9 339 8.8
2003-07-02 07:21:54 51°9.06 2°37.19 7.2 1 340 8.9
2003-07-02 07:22:00 51°9.06 2°37.19 7.2 1 338 8.8
2003-07-02 07:22:04 51°9.06 2°37.19 7.2 1 338 8.8
2003-07-02 07:22:08 51°9.06 2°37.19 6.6 1.1 342 8.9
2003-07-02 07:22:14 51°9.06 2°37.19 6.4 0.9 346 8.9
2003-07-02 07:22:20 51°9.06 2°37.19 6.7 0.9 347 8.8
2003-07-02 07:22:24 51°9.06 2°37.19 7.5 0.9 344 8.8
2003-07-02 07:22:28 51°9.07 2°37.18 7.9 0.9 343 8.7
2003-07-02 07:22:34 51°9.07 2°37.18 8.4 1 340 8.9
2003-07-02 07:22:38 51°9.07 2°37.18 8.6 1 349 8.9
2003-07-02 07:22:44 51°9.07 2°37.18 8.7 1 342 9
2003-07-02 07:22:48 51°9.07 2°37.18 8.1 1 346 9
2003-07-02 07:22:54 51°9.07 2°37.18 8 1 340 9
2003-07-02 07:22:58 51°9.07 2°37.18 7.8 1.1 347 9.1
2003-07-02 07:23:04 51°9.07 2°37.18 7.7 1 352 9
2003-07-02 07:23:08 51°9.08 2°37.18 6.7 1.1 346 8.9
2003-07-02 07:23:14 51°9.08 2°37.18 5.8 1 343 8.9
2003-07-02 07:23:20 51°9.08 2°37.18 5.1 1.1 346 8.8
2003-07-02 07:23:24 51°9.08 2°37.18 5.2 1.1 349 8.8
2003-07-02 07:23:28 51°9.08 2°37.18 5.6 0.9 342 8.8
2003-07-02 07:23:34 51°9.08 2°37.18 5.8 1 347 8.9
2003-07-02 07:23:40 51°9.08 2°37.18 6 1 342 9
2003-07-02 07:23:44 51°9.09 2°37.18 5.8 1 346 9.1
2003-07-02 07:23:48 51°9.09 2°37.18 5.8 1 340 9.1
2003-07-02 07:23:54 51°9.09 2°37.18 5.1 1 343 9.2
2003-07-02 07:23:58 51°9.09 2°37.17 4.7 1 336 9.3
2003-07-02 07:24:04 51°9.09 2°37.17 4.4 1.1 343 9.2
2003-07-02 07:24:08 51°9.09 2°37.17 4.3 1.1 341 9.2
2003-07-02 07:24:14 51°9.09 2°37.17 3.8 1 345 9.2
2003-07-02 07:24:20 51°9.09 2°37.17 4.1 0.9 338 9.2
2003-07-02 07:24:24 51°9.1 2°37.17 3.9 1 337 9.3
2003-07-02 07:24:28 51°9.1 2°37.17 3.8 1 343 9.2
2003-07-02 07:24:34 51°9.1 2°37.17 3.6 0.9 343 9.2
2003-07-02 07:24:40 51°9.1 2°37.17 3.8 0.9 337 9.2
2003-07-02 07:24:44 51°9.1 2°37.17 4.3 0.9 337 9.2
2003-07-02 07:24:48 51°9.1 2°37.17 4.3 0.7 339 9.2
2003-07-02 07:24:54 51°9.1 2°37.17 4.3 0.8 336 9.1
2003-07-02 07:25:00 51°9.1 2°37.17 4.3 0.8 336 9.2
2003-07-02 07:25:04 51°9.1 2°37.16 4.3 0.7 330 9.3
2003-07-02 07:25:08 51°9.1 2°37.16 4.1 0.6 330 9.3
2003-07-02 07:25:14 51°9.11 2°37.16 4.3 0.6 339 9.3
2003-07-02 07:25:18 51°9.11 2°37.16 4.6 0.7 335 9.1
2003-07-02 07:25:24 51°9.11 2°37.16 5 0.6 332 9.2
2003-07-02 07:25:28 51°9.11 2°37.16 5.1 0.4 320 9.1
2003-07-02 07:25:34 51°9.11 2°37.16 5.7 0.4 336 9
2003-07-02 07:25:38 51°9.11 2°37.16 5.6 0.4 316 9
2003-07-02 07:25:44 51°9.11 2°37.16 5.8 0.4 322 9.1
2003-07-02 07:25:48 51°9.11 2°37.16 5.6 0.4 314 9.2
2003-07-02 07:25:54 51°9.11 2°37.16 5.5 0.4 316 9.3
2003-07-02 07:25:58 51°9.11 2°37.16 5.1 0.4 315 9.3
2003-07-02 07:26:04 51°9.11 2°37.16 5.3 0.3 316 9.3
2003-07-02 07:26:08 51°9.11 2°37.16 5.4 0.4 291 9.2
2003-07-02 07:26:14 51°9.11 2°37.16 5.8 0.3 307 9.3
2003-07-02 07:26:20 51°9.11 2°37.15 5.8 0.2 292 9.3
2003-07-02 07:26:24 51°9.11 2°37.15 5.7 0.3 287 9.3
2003-07-02 07:26:28 51°9.11 2°37.15 5.8 0.4 290 9.3
2003-07-02 07:26:34 51°9.11 2°37.15 6.4 0.3 286 9.2
2003-07-02 07:26:40 51°9.11 2°37.15 6.3 0.4 274 9.3
2003-07-02 07:26:44 51°9.11 2°37.15 6.5 0.3 281 9.2
2003-07-02 07:26:48 51°9.11 2°37.15 7.2 0.3 293 9.3
2003-07-02 07:26:54 51°9.11 2°37.15 7.4 0.2 274 9.3
2003-07-02 07:27:00 51°9.11 2°37.15 8.1 0.2 270 9.3
2003-07-02 07:27:04 51°9.11 2°37.15 8.6 0.2 272 9.2
2003-07-02 07:27:08 51°9.11 2°37.15 9.3 0.3 264 9.2
2003-07-02 07:27:14 51°9.11 2°37.15 9.5 0.2 275 9.3
2003-07-02 07:27:20 51°9.11 2°37.15 9.8 0.3 259 9.3
2003-07-02 07:27:24 51°9.11 2°37.15 10.1 0.1 249 9.4
2003-07-02 07:27:28 51°9.11 2°37.15 10.6 0.3 249 9.4
2003-07-02 07:27:34 51°9.11 2°37.15 10.7 0.2 224 9.4
2003-07-02 07:27:38 51°9.11 2°37.15 11.3 0.2 252 9.2
2003-07-02 07:27:44 51°9.11 2°37.15 11.7 0.3 246 9.1
2003-07-02 07:27:48 51°9.11 2°37.15 11.8 0.3 244 9.2
2003-07-02 07:27:54 51°9.11 2°37.15 11.9 0.3 229 9.2
2003-07-02 07:27:58 51°9.11 2°37.15 12.3 0.3 242 9.2
2003-07-02 07:28:04 51°9.11 2°37.14 12.7 0.3 229 9.2
2003-07-02 07:28:08 51°9.11 2°37.14 13 0.3 250 9.3
2003-07-02 07:28:14 51°9.11 2°37.14 13.2 0.3 236 9.4
2003-07-02 07:28:18 51°9.11 2°37.14 13.6 0.3 230 9.3
2003-07-02 07:28:24 51°9.11 2°37.14 14.2 0.4 250 9.3
2003-07-02 07:28:28 51°9.11 2°37.14 14.4 0.1 213 9.2
2003-07-02 07:28:34 51°9.11 2°37.14 14.4 0.3 238 9.1
2003-07-02 07:28:38 51°9.11 2°37.14 15.1 0.3 225 9.1
2003-07-02 07:28:44 51°9.11 2°37.14 15.4 0.2 227 9
2003-07-02 07:28:48 51°9.11 2°37.14 15.7 0.3 234 9
2003-07-02 07:28:54 51°9.11 2°37.14 16.3 0.3 217 9
2003-07-02 07:29:00 51°9.11 2°37.14 16.9 0.4 222 9.1
2003-07-02 07:29:04 51°9.11 2°37.14 17.2 0.3 202 9.3
2003-07-02 07:29:08 51°9.11 2°37.14 17.6 0.3 208 9.3
2003-07-02 07:29:14 51°9.11 2°37.14 18.3 0.3 206 9.2
2003-07-02 07:29:20 51°9.11 2°37.14 18.7 0.4 207 9.1
2003-07-02 07:29:24 51°9.11 2°37.14 19.1 0.3 204 9.1
2003-07-02 07:29:28 51°9.11 2°37.14 19.7 0.2 203 9.2
2003-07-02 07:29:34 51°9.1 2°37.14 20.4 0.3 198 9.1
2003-07-02 07:29:40 51°9.1 2°37.14 20.7 0.3 191 9.2
2003-07-02 07:29:44 51°9.1 2°37.14 21.1 0.3 185 9.2
2003-07-02 07:29:48 51°9.1 2°37.14 21.7 0.3 201 9.3
2003-07-02 07:29:54 51°9.1 2°37.14 21.9 0.4 196 9.2
2003-07-02 07:30:00 51°9.1 2°37.14 22.5 0.2 211 9.1
2003-07-02 07:30:04 51°9.1 2°37.14 22.5 0.3 214 9.2
2003-07-02 07:30:08 51°9.1 2°37.14 22.1 0.3 214 9.2
2003-07-02 07:30:14 51°9.1 2°37.14 22.1 0.3 220 9.3
2003-07-02 07:30:20 51°9.1 2°37.14 21.7 0.3 201 9.3
2003-07-02 07:30:24 51°9.1 2°37.14 22 0.3 214 9.4
2003-07-02 07:30:28 51°9.1 2°37.14 22.1 0.3 214 9.3
2003-07-02 07:30:34 51°9.1 2°37.14 22.2 0.2 200 9.2
2003-07-02 07:30:40 51°9.1 2°37.13 22.3 0.3 210 9.2
2003-07-02 07:30:44 51°9.1 2°37.13 22.4 0.3 198 9.2
2003-07-02 07:30:48 51°9.1 2°37.13 22.4 0.3 194 9.1
2003-07-02 07:30:54 51°9.1 2°37.13 22.4 0.3 209 9.1
2003-07-02 07:31:00 51°9.1 2°37.13 22.3 0.3 184 9.2
2003-07-02 07:31:04 51°9.1 2°37.13 22.1 0.4 186 9.1
2003-07-02 07:31:08 51°9.1 2°37.13 23.2 0.3 207 9
2003-07-02 07:31:14 51°9.1 2°37.13 24.1 0.3 216 9
2003-07-02 07:31:18 51°9.1 2°37.13 24.3 0.3 210 9.1
2003-07-02 07:31:24 51°9.1 2°37.13 24.6 0.3 210 9.2
2003-07-02 07:31:28 51°9.1 2°37.13 24.7 0.4 228 9.3
2003-07-02 07:31:34 51°9.1 2°37.13 24.6 0.3 213 9.2
2003-07-02 07:31:38 51°9.1 2°37.13 24.7 0.3 212 9.3
2003-07-02 07:31:44 51°9.1 2°37.13 24.9 0.2 206 9.2
2003-07-02 07:31:48 51°9.1 2°37.13 24.9 0.3 208 9.1
2003-07-02 07:31:54 51°9.1 2°37.13 24.9 0.3 195 9.1
2003-07-02 07:32:00 51°9.09 2°37.13 25.1 0.3 216 9
2003-07-02 07:32:04 51°9.09 2°37.13 24.9 0.3 214 9.1
2003-07-02 07:32:08 51°9.09 2°37.13 24.6 0.3 210 9.1
2003-07-02 07:32:14 51°9.09 2°37.13 24.3 0.4 225 9.2
2003-07-02 07:32:20 51°9.09 2°37.13 24 0.4 198 9.2
2003-07-02 07:32:24 51°9.09 2°37.13 24.6 0.4 211 9.1
2003-07-02 07:32:28 51°9.09 2°37.13 25.7 0.4 208 9
2003-07-02 07:32:34 51°9.09 2°37.13 25.8 0.4 210 9.1
2003-07-02 07:32:38 51°9.09 2°37.13 25.9 0.4 225 9.2
2003-07-02 07:32:44 51°9.09 2°37.13 25.7 0.3 222 9.1
2003-07-02 07:32:48 51°9.09 2°37.12 25.6 0.3 204 9.2